Time;durP1;ratioP1;P1;durP2;ratioP2;P2;SDS_P1;SDS_P2;PMS_P1;PMS_P2;Temp;Humidity;BMP_temperature;BMP_pressure;BME280_temperature;BME280_humidity;BME280_pressure;Samples;Min_cycle;Max_cycle;Signal;HPM_P1;HPM_P2
2021/04/27 00:01:16;;;;;;;3.33;2.17;;;;;;;;;;5132805;27;20167;-83
2021/04/27 00:03:42;;;;;;;3.88;2.60;;;;;;;;;;5115723;27;20058;-83
2021/04/27 00:06:08;;;;;;;10.48;2.72;;;;;;;;;;5132656;27;20043;-83
2021/04/27 00:08:34;;;;;;;7.32;2.55;;;;;;;;;;5133963;27;20085;-83
2021/04/27 00:11:00;;;;;;;6.18;2.65;;;;;;;;;;5133832;27;20035;-83
2021/04/27 00:13:27;;;;;;;6.30;2.67;;;;;;;;;;5133834;27;20039;-83
2021/04/27 00:15:53;;;;;;;8.68;2.70;;;;;;;;;;5132658;27;20058;-83
2021/04/27 00:18:19;;;;;;;3.28;2.50;;;;;;;;;;5132612;27;20081;-84
2021/04/27 00:20:45;;;;;;;4.72;2.67;;;;;;;;;;5115592;27;20091;-84
2021/04/27 00:23:11;;;;;;;5.95;3.20;;;;;;;;;;5132411;27;20056;-84
2021/04/27 00:25:37;;;;;;;10.07;3.65;;;;;;;;;;5133572;27;20118;-84
2021/04/27 00:28:03;;;;;;;4.82;2.92;;;;;;;;;;5133435;27;20035;-83
2021/04/27 00:30:29;;;;;;;6.30;2.92;;;;;;;;;;5133521;27;20038;-83
2021/04/27 00:32:56;;;;;;;6.65;2.65;;;;;;;;;;5132390;27;20070;-83
2021/04/27 00:35:22;;;;;;;5.63;2.83;;;;;;;;;;5133525;27;20039;-83
2021/04/27 00:37:48;;;;;;;5.78;2.92;;;;;;;;;;5133175;27;20043;-82
2021/04/27 00:40:15;;;;;;;6.75;3.47;;;;;;;;;;5133323;27;20039;-82
2021/04/27 00:42:41;;;;;;;3.88;2.75;;;;;;;;;;5132095;27;20055;-82
2021/04/27 00:45:11;;;;;;;6.07;2.63;;;;;;;;;;5115168;27;20099;-83
2021/04/27 00:47:37;;;;;;;4.93;2.45;;;;;;;;;;5133280;27;20051;-83
2021/04/27 00:50:07;;;;;;;6.90;3.17;;;;;;;;;;5132030;27;20061;-83
2021/04/27 00:52:33;;;;;;;5.57;2.45;;;;;;;;;;5132069;27;20035;-83
2021/04/27 00:54:59;;;;;;;4.80;2.65;;;;;;;;;;5133329;27;20043;-82
2021/04/27 00:57:26;;;;;;;6.43;2.75;;;;;;;;;;5133249;27;20041;-82
2021/04/27 00:59:52;;;;;;;5.75;2.85;;;;;;;;;;5132047;28;20035;-82
2021/04/27 01:02:18;;;;;;;6.18;3.20;;;;;;;;;;5133152;27;20482;-85
2021/04/27 01:04:45;;;;;;;5.15;3.08;;;;;;;;;;5131750;28;20054;-83
2021/04/27 01:07:11;;;;;;;4.07;2.75;;;;;;;;;;5133094;27;20035;-82
2021/04/27 01:09:40;;;;;;;6.18;2.90;;;;;;;;;;5133110;27;20039;-83
2021/04/27 01:12:16;;;;;;;4.97;2.90;;;;;;;;;;5133204;27;20053;-82
2021/04/27 01:14:44;;;;;;;7.57;3.80;;;;;;;;;;5119108;27;20039;-82
2021/04/27 01:17:14;;;;;;;4.35;3.03;;;;;;;;;;5119013;27;20039;-82
2021/04/27 01:19:45;;;;;;;5.35;3.25;;;;;;;;;;5136127;27;20039;-82
2021/04/27 01:22:12;;;;;;;7.80;3.33;;;;;;;;;;5136024;27;20069;-82
2021/04/27 01:24:46;;;;;;;5.68;3.20;;;;;;;;;;5135898;27;20543;-82
2021/04/27 01:27:13;;;;;;;6.95;3.75;;;;;;;;;;5135804;27;20122;-82
2021/04/27 01:29:39;;;;;;;5.95;2.92;;;;;;;;;;5135798;27;20035;-82
2021/04/27 01:32:05;;;;;;;5.47;2.92;;;;;;;;;;5135827;27;20031;-82
2021/04/27 01:34:40;;;;;;;9.57;3.40;;;;;;;;;;5136969;27;20043;-82
2021/04/27 01:37:06;;;;;;;8.52;3.40;;;;;;;;;;5135460;27;20086;-82
2021/04/27 01:39:32;;;;;;;6.47;3.15;;;;;;;;;;5118934;27;20031;-83
2021/04/27 01:42:01;;;;;;;5.32;2.78;;;;;;;;;;5118704;27;20039;-82
2021/04/27 01:44:31;;;;;;;5.00;3.15;;;;;;;;;;5135654;27;20126;-82
2021/04/27 01:46:57;;;;;;;5.85;3.03;;;;;;;;;;5118584;27;20035;-83
2021/04/27 01:49:24;;;;;;;7.03;2.97;;;;;;;;;;5136829;27;20486;-83
2021/04/27 01:51:50;;;;;;;7.13;3.70;;;;;;;;;;5135454;27;20043;-83
2021/04/27 01:54:16;;;;;;;8.60;3.40;;;;;;;;;;5135411;27;20402;-83
2021/04/27 01:56:43;;;;;;;6.45;3.13;;;;;;;;;;5118130;27;20033;-83
2021/04/27 01:59:09;;;;;;;11.10;4.18;;;;;;;;;;5136491;27;20411;-83
2021/04/27 02:01:35;;;;;;;7.93;3.63;;;;;;;;;;5136545;27;20371;-83
2021/04/27 02:04:01;;;;;;;8.18;3.47;;;;;;;;;;5135164;27;20039;-83
2021/04/27 02:06:28;;;;;;;6.47;3.72;;;;;;;;;;5135205;27;20051;-83
2021/04/27 02:08:59;;;;;;;8.00;3.97;;;;;;;;;;5135388;27;20039;-82
2021/04/27 02:11:25;;;;;;;7.57;3.90;;;;;;;;;;5135128;27;20090;-82
2021/04/27 02:13:51;;;;;;;6.80;3.80;;;;;;;;;;5118191;27;20039;-82
2021/04/27 02:16:17;;;;;;;8.45;3.90;;;;;;;;;;5136086;27;20106;-82
2021/04/27 02:18:49;;;;;;;6.97;4.05;;;;;;;;;;5134933;27;20045;-82
2021/04/27 02:21:15;;;;;;;6.15;3.58;;;;;;;;;;5118035;27;20043;-82
2021/04/27 02:23:41;;;;;;;8.35;3.78;;;;;;;;;;5133334;27;20035;-81
2021/04/27 02:26:07;;;;;;;7.05;4.30;;;;;;;;;;5134732;27;20130;-82
2021/04/27 02:28:33;;;;;;;9.52;4.68;;;;;;;;;;5134726;27;20031;-81
2021/04/27 02:30:59;;;;;;;7.63;4.13;;;;;;;;;;5134738;27;20035;-81
2021/04/27 02:33:25;;;;;;;8.52;4.30;;;;;;;;;;5117691;27;20043;-82
2021/04/27 02:35:52;;;;;;;6.13;3.65;;;;;;;;;;5135746;27;20039;-81
2021/04/27 02:38:21;;;;;;;6.55;3.78;;;;;;;;;;5117321;27;20506;-81
2021/04/27 02:40:51;;;;;;;6.40;3.53;;;;;;;;;;5134473;27;20039;-81
2021/04/27 02:43:17;;;;;;;10.35;5.15;;;;;;;;;;5134376;27;20047;-80
2021/04/27 02:45:43;;;;;;;12.45;4.40;;;;;;;;;;5135614;27;20054;-81
2021/04/27 02:48:09;;;;;;;13.27;4.88;;;;;;;;;;5134302;27;20535;-81
2021/04/27 02:50:38;;;;;;;9.85;4.18;;;;;;;;;;5134258;27;20032;-81
2021/04/27 02:53:04;;;;;;;12.07;4.60;;;;;;;;;;5135439;27;20116;-81
2021/04/27 02:55:30;;;;;;;7.47;3.92;;;;;;;;;;5134327;27;20121;-80
2021/04/27 02:57:56;;;;;;;9.07;4.40;;;;;;;;;;5135512;27;20035;-81
2021/04/27 03:00:22;;;;;;;8.38;4.28;;;;;;;;;;5134169;27;20039;-82
2021/04/27 03:02:48;;;;;;;8.18;4.28;;;;;;;;;;5135187;27;20038;-81
2021/04/27 03:05:15;;;;;;;10.30;4.00;;;;;;;;;;5135272;27;20479;-82
2021/04/27 03:07:41;;;;;;;8.20;4.35;;;;;;;;;;5135021;27;20031;-81
2021/04/27 03:10:07;;;;;;;11.45;3.92;;;;;;;;;;5135113;27;20031;-83
2021/04/27 03:12:33;;;;;;;8.98;4.90;;;;;;;;;;5133985;27;20084;-82
2021/04/27 03:15:00;;;;;;;10.98;5.03;;;;;;;;;;5135319;27;20035;-81
2021/04/27 03:17:26;;;;;;;8.40;5.00;;;;;;;;;;5135045;27;20038;-82
2021/04/27 03:19:52;;;;;;;10.30;4.45;;;;;;;;;;5116577;27;20046;-82
2021/04/27 03:22:18;;;;;;;9.85;4.40;;;;;;;;;;5116631;27;20035;-82
2021/04/27 03:24:44;;;;;;;9.77;4.72;;;;;;;;;;5116451;27;20096;-83
2021/04/27 03:27:10;;;;;;;8.88;4.63;;;;;;;;;;5133603;27;20035;-82
2021/04/27 03:29:36;;;;;;;13.93;5.03;;;;;;;;;;5134858;27;20031;-81
2021/04/27 03:32:03;;;;;;;8.13;4.00;;;;;;;;;;5133604;27;20070;-82
2021/04/27 03:34:29;;;;;;;6.15;4.00;;;;;;;;;;5116023;27;20043;-81
2021/04/27 03:36:55;;;;;;;8.95;4.65;;;;;;;;;;5133164;27;20124;-82
2021/04/27 03:39:21;;;;;;;11.27;4.45;;;;;;;;;;5134544;27;20099;-82
2021/04/27 03:41:47;;;;;;;7.63;4.60;;;;;;;;;;5134493;27;20514;-83
2021/04/27 03:44:13;;;;;;;8.15;4.63;;;;;;;;;;5134375;27;20046;-82
2021/04/27 03:46:39;;;;;;;10.75;4.53;;;;;;;;;;5133156;27;20028;-82
2021/04/27 03:49:05;;;;;;;8.57;4.05;;;;;;;;;;5133085;27;20035;-82
2021/04/27 03:51:33;;;;;;;9.32;4.57;;;;;;;;;;5133121;27;20078;-82
2021/04/27 03:53:59;;;;;;;8.05;4.70;;;;;;;;;;5133190;27;20084;-82
2021/04/27 03:56:25;;;;;;;8.30;4.97;;;;;;;;;;5132946;27;20569;-81
2021/04/27 03:58:51;;;;;;;13.23;5.53;;;;;;;;;;5133041;27;20035;-82
2021/04/27 04:01:17;;;;;;;12.30;5.53;;;;;;;;;;5134064;27;20031;-80
2021/04/27 04:03:43;;;;;;;9.85;4.80;;;;;;;;;;5133846;27;20065;-80
2021/04/27 04:06:09;;;;;;;9.18;5.28;;;;;;;;;;5132692;27;20505;-80
2021/04/27 04:08:35;;;;;;;7.57;4.50;;;;;;;;;;5134026;27;20394;-80
2021/04/27 04:11:01;;;;;;;8.68;4.90;;;;;;;;;;5132880;27;20067;-80
2021/04/27 04:13:27;;;;;;;10.77;5.28;;;;;;;;;;5115886;27;20360;-82
2021/04/27 04:15:53;;;;;;;14.48;5.30;;;;;;;;;;5132582;27;20263;-82
2021/04/27 04:18:21;;;;;;;8.52;4.72;;;;;;;;;;5132587;27;20091;-82
2021/04/27 04:20:47;;;;;;;9.18;5.07;;;;;;;;;;5132672;27;20039;-82
2021/04/27 04:23:13;;;;;;;9.95;5.68;;;;;;;;;;5132412;27;20114;-82
2021/04/27 04:25:39;;;;;;;10.00;5.57;;;;;;;;;;5133712;27;20081;-82
2021/04/27 04:28:05;;;;;;;9.50;5.38;;;;;;;;;;5132383;27;20081;-80
2021/04/27 04:30:32;;;;;;;11.88;5.25;;;;;;;;;;5132568;27;20415;-82
2021/04/27 04:32:59;;;;;;;8.48;3.65;;;;;;;;;;5133583;27;20488;-82
2021/04/27 04:35:25;;;;;;;11.55;4.22;;;;;;;;;;5132387;27;20474;-82
2021/04/27 04:37:51;;;;;;;15.00;4.70;;;;;;;;;;5132049;27;20073;-82
2021/04/27 04:40:17;;;;;;;10.77;5.00;;;;;;;;;;5132333;27;20047;-82
2021/04/27 04:42:44;;;;;;;33.55;8.32;;;;;;;;;;5132526;27;20064;-82
2021/04/27 04:45:10;;;;;;;12.68;5.03;;;;;;;;;;5132292;27;20446;-82
2021/04/27 04:47:36;;;;;;;15.60;4.93;;;;;;;;;;5131445;27;20229;-83
2021/04/27 04:50:03;;;;;;;32.53;5.63;;;;;;;;;;5132307;27;20102;-82
2021/04/27 04:52:30;;;;;;;15.15;4.82;;;;;;;;;;5132485;27;20118;-83
2021/04/27 04:54:56;;;;;;;7.25;4.70;;;;;;;;;;5115070;27;20155;-82
2021/04/27 04:57:23;;;;;;;7.05;4.43;;;;;;;;;;5133255;27;20389;-83
2021/04/27 04:59:49;;;;;;;7.40;4.57;;;;;;;;;;5133161;27;20111;-82
2021/04/27 05:02:15;;;;;;;9.30;4.75;;;;;;;;;;5133203;27;20038;-85
2021/04/27 05:04:41;;;;;;;8.95;4.65;;;;;;;;;;5114922;28;20042;-87
2021/04/27 05:07:10;;;;;;;8.00;4.65;;;;;;;;;;5131988;28;20099;-84
2021/04/27 05:09:37;;;;;;;9.35;4.70;;;;;;;;;;5115494;28;20122;-81
2021/04/27 05:12:03;;;;;;;7.97;4.18;;;;;;;;;;5132042;27;20466;-83
2021/04/27 05:14:30;;;;;;;9.70;4.97;;;;;;;;;;5133106;27;20085;-88
2021/04/27 05:16:57;;;;;;;9.35;4.20;;;;;;;;;;5114707;28;20390;-82
2021/04/27 05:19:23;;;;;;;9.25;4.55;;;;;;;;;;5114815;28;20031;-82
2021/04/27 05:21:49;;;;;;;8.05;4.50;;;;;;;;;;5131826;28;20036;-83
2021/04/27 05:24:16;;;;;;;7.78;4.40;;;;;;;;;;5131661;28;20036;-84
2021/04/27 05:26:42;;;;;;;7.85;3.90;;;;;;;;;;5132829;27;20058;-83
2021/04/27 05:29:09;;;;;;;7.30;4.00;;;;;;;;;;5131634;27;20088;-83
2021/04/27 05:31:35;;;;;;;7.40;4.22;;;;;;;;;;5114704;28;20031;-83
2021/04/27 05:34:01;;;;;;;5.57;3.50;;;;;;;;;;5114752;28;20130;-83
2021/04/27 05:36:27;;;;;;;7.97;4.10;;;;;;;;;;5131480;27;20204;-83
2021/04/27 05:38:53;;;;;;;6.47;3.92;;;;;;;;;;5132872;27;20035;-81
2021/04/27 05:41:19;;;;;;;7.47;3.88;;;;;;;;;;5131692;28;20121;-83
2021/04/27 05:43:45;;;;;;;5.20;3.67;;;;;;;;;;5131295;27;20435;-82
2021/04/27 05:46:11;;;;;;;5.82;3.55;;;;;;;;;;5131439;27;20045;-81
2021/04/27 05:48:37;;;;;;;5.63;3.25;;;;;;;;;;5131570;28;20087;-80
2021/04/27 05:51:03;;;;;;;7.40;3.90;;;;;;;;;;5132908;27;20092;-80
2021/04/27 05:53:31;;;;;;;6.97;3.20;;;;;;;;;;5132882;27;20047;-80
2021/04/27 05:55:57;;;;;;;4.05;2.83;;;;;;;;;;5131483;28;20118;-81
2021/04/27 05:58:23;;;;;;;7.93;3.38;;;;;;;;;;5134132;27;20035;-80
2021/04/27 06:00:49;;;;;;;5.45;3.17;;;;;;;;;;5136533;27;20088;-80
2021/04/27 06:03:15;;;;;;;6.32;3.30;;;;;;;;;;5135461;27;20474;-82
2021/04/27 06:05:41;;;;;;;5.72;2.95;;;;;;;;;;5136512;27;20070;-83
2021/04/27 06:08:07;;;;;;;4.95;3.00;;;;;;;;;;5135194;27;20058;-81
2021/04/27 06:10:33;;;;;;;6.07;2.92;;;;;;;;;;5135331;27;20474;-82
2021/04/27 06:12:59;;;;;;;6.38;3.08;;;;;;;;;;5136275;27;20492;-82
2021/04/27 06:15:25;;;;;;;3.33;3.03;;;;;;;;;;5136355;27;20036;-82
2021/04/27 06:17:51;;;;;;;5.95;2.75;;;;;;;;;;5134930;27;20035;-83
2021/04/27 06:20:18;;;;;;;4.50;3.10;;;;;;;;;;5134994;27;20070;-83
2021/04/27 06:22:44;;;;;;;7.78;3.20;;;;;;;;;;5132579;27;20057;-82
2021/04/27 06:25:10;;;;;;;4.20;2.63;;;;;;;;;;5134438;27;20027;-82
2021/04/27 06:27:36;;;;;;;4.15;2.67;;;;;;;;;;5100784;27;20089;-82
2021/04/27 06:30:03;;;;;;;4.30;2.65;;;;;;;;;;5136090;27;20197;-82
2021/04/27 06:32:29;;;;;;;4.88;2.72;;;;;;;;;;5133989;27;20084;-82
2021/04/27 06:34:55;;;;;;;8.05;3.10;;;;;;;;;;5117550;27;20114;-82
2021/04/27 06:37:21;;;;;;;5.47;2.88;;;;;;;;;;5134330;27;20051;-83
2021/04/27 06:39:47;;;;;;;4.60;2.50;;;;;;;;;;5133839;27;20050;-82
2021/04/27 06:42:14;;;;;;;4.30;2.60;;;;;;;;;;5134387;27;20035;-82
2021/04/27 06:44:40;;;;;;;4.50;2.38;;;;;;;;;;5116739;27;20038;-82
2021/04/27 06:47:06;;;;;;;4.43;2.50;;;;;;;;;;5135580;27;20050;-83
2021/04/27 06:49:33;;;;;;;3.58;2.75;;;;;;;;;;5135629;27;20031;-83
2021/04/27 06:51:59;;;;;;;5.90;2.55;;;;;;;;;;5117360;27;20028;-82
2021/04/27 06:54:25;;;;;;;3.88;2.30;;;;;;;;;;5133878;27;20043;-82
2021/04/27 06:56:51;;;;;;;3.85;2.50;;;;;;;;;;5135301;27;20108;-84
2021/04/27 06:59:20;;;;;;;6.05;2.22;;;;;;;;;;5133193;27;20041;-82
2021/04/27 07:01:46;;;;;;;3.25;2.05;;;;;;;;;;5116575;27;20039;-81
2021/04/27 07:04:12;;;;;;;3.90;2.30;;;;;;;;;;5134047;27;20054;-82
2021/04/27 07:06:39;;;;;;;2.45;2.20;;;;;;;;;;5133934;27;20035;-82
2021/04/27 07:09:05;;;;;;;4.00;2.22;;;;;;;;;;5133566;27;20084;-84
2021/04/27 07:11:31;;;;;;;4.18;2.10;;;;;;;;;;5134730;27;20101;-82
2021/04/27 07:13:58;;;;;;;3.63;2.28;;;;;;;;;;5135272;27;20478;-82
2021/04/27 07:16:24;;;;;;;2.42;2.08;;;;;;;;;;5133648;27;20386;-82
2021/04/27 07:18:50;;;;;;;3.03;2.13;;;;;;;;;;5133669;27;20039;-81
2021/04/27 07:21:19;;;;;;;4.65;2.50;;;;;;;;;;5116496;27;20454;-81
2021/04/27 07:23:45;;;;;;;2.42;1.98;;;;;;;;;;5116691;27;20047;-82
2021/04/27 07:26:11;;;;;;;3.50;2.45;;;;;;;;;;5134608;27;20046;-82
2021/04/27 07:28:37;;;;;;;3.45;2.70;;;;;;;;;;5134816;27;20034;-83
2021/04/27 07:31:03;;;;;;;3.33;2.47;;;;;;;;;;5133627;27;20035;-81
2021/04/27 07:33:29;;;;;;;4.30;2.70;;;;;;;;;;5133450;27;20035;-82
2021/04/27 07:35:56;;;;;;;4.28;2.38;;;;;;;;;;5133383;27;20416;-83
2021/04/27 07:38:22;;;;;;;3.80;2.35;;;;;;;;;;5134436;27;20123;-82
2021/04/27 07:40:49;;;;;;;3.88;2.30;;;;;;;;;;5133392;27;20376;-83
2021/04/27 07:43:15;;;;;;;3.22;2.38;;;;;;;;;;5133236;27;20043;-84
2021/04/27 07:45:41;;;;;;;6.25;2.35;;;;;;;;;;5133274;27;20031;-83
2021/04/27 07:48:07;;;;;;;3.63;2.22;;;;;;;;;;5134448;27;20474;-83
2021/04/27 07:50:34;;;;;;;6.15;2.17;;;;;;;;;;5134511;27;20534;-82
2021/04/27 07:53:00;;;;;;;2.78;2.42;;;;;;;;;;5132946;27;20039;-83
2021/04/27 07:55:26;;;;;;;4.20;2.30;;;;;;;;;;5133108;27;20035;-83
2021/04/27 07:57:53;;;;;;;6.13;2.50;;;;;;;;;;5134128;27;20110;-82
2021/04/27 08:00:19;;;;;;;2.42;2.15;;;;;;;;;;5133058;27;20114;-84
2021/04/27 08:02:45;;;;;;;3.83;2.70;;;;;;;;;;5134037;27;20042;-82
2021/04/27 08:05:11;;;;;;;3.30;2.30;;;;;;;;;;5132630;27;20027;-83
2021/04/27 08:07:37;;;;;;;6.15;2.75;;;;;;;;;;5132873;27;20040;-83
2021/04/27 08:10:04;;;;;;;5.05;2.80;;;;;;;;;;5134099;27;20042;-83
2021/04/27 08:12:30;;;;;;;3.42;2.40;;;;;;;;;;5132745;27;20079;-83
2021/04/27 08:14:56;;;;;;;5.65;2.70;;;;;;;;;;5133877;27;20066;-83
2021/04/27 08:17:22;;;;;;;6.35;2.60;;;;;;;;;;5132515;27;20467;-84
2021/04/27 08:19:49;;;;;;;5.82;2.72;;;;;;;;;;5133746;27;20465;-84
2021/04/27 08:22:15;;;;;;;4.97;2.70;;;;;;;;;;5115466;27;20490;-83
2021/04/27 08:24:44;;;;;;;4.35;2.60;;;;;;;;;;5133568;27;20031;-82
2021/04/27 08:27:11;;;;;;;5.70;3.03;;;;;;;;;;5132401;27;20497;-83
2021/04/27 08:29:37;;;;;;;7.25;2.75;;;;;;;;;;5132547;27;20038;-83
2021/04/27 08:32:03;;;;;;;5.40;2.90;;;;;;;;;;5132469;27;20109;-83
2021/04/27 08:34:29;;;;;;;3.70;2.30;;;;;;;;;;5115160;27;20478;-84
2021/04/27 08:36:56;;;;;;;6.95;2.58;;;;;;;;;;5133207;27;20089;-85
2021/04/27 08:39:22;;;;;;;6.57;2.60;;;;;;;;;;5133419;27;20088;-83
2021/04/27 08:41:48;;;;;;;4.20;2.42;;;;;;;;;;5132230;27;20092;-83
2021/04/27 08:44:16;;;;;;;4.20;2.60;;;;;;;;;;5115495;27;20254;-83
2021/04/27 08:46:43;;;;;;;3.70;2.53;;;;;;;;;;5133310;27;20539;-84
2021/04/27 08:49:09;;;;;;;3.17;2.28;;;;;;;;;;5131952;27;20035;-84
2021/04/27 08:51:35;;;;;;;4.28;2.10;;;;;;;;;;5132157;27;20070;-83
2021/04/27 08:54:03;;;;;;;6.43;2.80;;;;;;;;;;5133197;27;20449;-82
2021/04/27 08:56:29;;;;;;;4.53;2.67;;;;;;;;;;5114956;27;20036;-81
2021/04/27 08:58:55;;;;;;;3.65;2.60;;;;;;;;;;5133080;27;20114;-82
2021/04/27 09:01:21;;;;;;;2.80;2.10;;;;;;;;;;5133049;27;20087;-82
2021/04/27 09:03:54;;;;;;;4.63;2.45;;;;;;;;;;5131712;28;20039;-81
2021/04/27 09:06:21;;;;;;;3.85;2.30;;;;;;;;;;5131899;28;20043;-82
2021/04/27 09:08:47;;;;;;;5.97;2.50;;;;;;;;;;5133160;27;20451;-82
2021/04/27 09:11:30;;;;;;;6.40;2.58;;;;;;;;;;5131840;28;20042;-82
2021/04/27 09:13:56;;;;;;;;;;;;;;;;;;5132206;28;20043;-81
2021/04/27 09:16:26;;;;;;;3.78;2.13;;;;;;;;;;5131612;28;19964;-82
2021/04/27 09:18:52;;;;;;;2.85;2.38;;;;;;;;;;5132998;27;20054;-81
2021/04/27 09:21:18;;;;;;;4.30;2.55;;;;;;;;;;5131757;28;20066;-82
2021/04/27 09:23:44;;;;;;;5.93;2.50;;;;;;;;;;5133017;27;20084;-82
2021/04/27 09:26:14;;;;;;;6.20;2.20;;;;;;;;;;5132893;27;20115;-81
2021/04/27 09:28:42;;;;;;;4.60;2.20;;;;;;;;;;5131684;28;20481;-82
2021/04/27 09:31:27;;;;;;;3.10;2.30;;;;;;;;;;5131926;28;20038;-82
2021/04/27 09:33:54;;;;;;;5.95;2.42;;;;;;;;;;5130984;27;20478;-82
2021/04/27 09:36:20;;;;;;;3.95;2.60;;;;;;;;;;5135482;27;20126;-82
2021/04/27 09:38:46;;;;;;;4.53;2.38;;;;;;;;;;5135817;27;20035;-82
2021/04/27 09:41:12;;;;;;;2.33;2.13;;;;;;;;;;5135386;27;20442;-82
2021/04/27 09:43:45;;;;;;;2.92;2.20;;;;;;;;;;5135442;27;20043;-80
2021/04/27 09:46:11;;;;;;;3.55;2.53;;;;;;;;;;5118755;27;20035;-83
2021/04/27 09:48:45;;;;;;;6.38;2.50;;;;;;;;;;5136900;27;20474;-84
2021/04/27 09:51:14;;;;;;;3.15;2.40;;;;;;;;;;5134554;27;20085;-81
2021/04/27 09:53:41;;;;;;;5.70;2.83;;;;;;;;;;5135217;27;20389;-81
2021/04/27 09:56:07;;;;;;;6.93;2.47;;;;;;;;;;5134567;27;20035;-81
2021/04/27 09:58:34;;;;;;;2.35;2.15;;;;;;;;;;5136916;27;20053;-82
2021/04/27 10:01:01;;;;;;;3.75;2.50;;;;;;;;;;5135336;27;20063;-82
2021/04/27 10:03:27;;;;;;;3.38;2.50;;;;;;;;;;5136277;27;20046;-82
2021/04/27 10:05:53;;;;;;;2.95;2.30;;;;;;;;;;5135115;27;20113;-82
2021/04/27 10:08:19;;;;;;;3.33;2.53;;;;;;;;;;5136309;27;20407;-82
2021/04/27 10:10:45;;;;;;;4.38;2.42;;;;;;;;;;5135091;27;20389;-82
2021/04/27 10:13:11;;;;;;;4.55;2.50;;;;;;;;;;5118026;27;20038;-82
2021/04/27 10:15:38;;;;;;;3.90;2.63;;;;;;;;;;5135085;27;20042;-83
2021/04/27 10:18:05;;;;;;;3.88;2.47;;;;;;;;;;5136179;27;20401;-80
2021/04/27 10:20:31;;;;;;;2.85;2.38;;;;;;;;;;5136181;27;20035;-81
2021/04/27 10:22:57;;;;;;;2.28;2.03;;;;;;;;;;5135974;27;20038;-81
2021/04/27 10:25:23;;;;;;;3.35;2.55;;;;;;;;;;5134797;27;20421;-81
2021/04/27 10:27:53;;;;;;;5.47;2.60;;;;;;;;;;5134739;27;20111;-80
2021/04/27 10:30:21;;;;;;;3.40;2.60;;;;;;;;;;5134737;27;20437;-80
2021/04/27 10:33:07;;;;;;;2.55;2.20;;;;;;;;;;5136033;27;20041;-81
2021/04/27 10:35:34;;;;;;;3.60;2.22;;;;;;;;;;5135841;27;20409;-81
2021/04/27 10:38:04;;;;;;;3.83;2.25;;;;;;;;;;5134411;27;20494;-81
2021/04/27 10:40:50;;;;;;;4.32;2.30;;;;;;;;;;5134741;27;20432;-81
2021/04/27 10:43:23;;;;;;;5.10;2.25;;;;;;;;;;5134431;27;20048;-80
2021/04/27 10:45:49;;;;;;;4.30;2.47;;;;;;;;;;5133092;27;20039;-81
2021/04/27 10:48:29;;;;;;;3.78;2.45;;;;;;;;;;5135729;27;20122;-82
2021/04/27 10:50:55;;;;;;;5.32;2.42;;;;;;;;;;5134379;27;20113;-81
2021/04/27 10:53:34;;;;;;;4.93;1.85;;;;;;;;;;5135483;27;20038;-81
2021/04/27 10:56:01;;;;;;;5.05;2.00;;;;;;;;;;5134197;27;20084;-81
2021/04/27 10:58:55;;;;;;;4.70;2.70;;;;;;;;;;5134132;27;20126;-81
2021/04/27 11:01:22;;;;;;;2.63;2.10;;;;;;;;;;5133377;27;20051;-81
2021/04/27 11:03:49;;;;;;;5.57;2.30;;;;;;;;;;5116956;27;20053;-81
2021/04/27 11:06:15;;;;;;;3.38;2.20;;;;;;;;;;5135209;27;20046;-80
2021/04/27 11:08:52;;;;;;;6.65;2.33;;;;;;;;;;5133936;27;20084;-81
2021/04/27 11:11:18;;;;;;;3.80;1.77;;;;;;;;;;5134092;27;20035;-81
2021/04/27 11:13:44;;;;;;;5.03;2.65;;;;;;;;;;5116919;27;20042;-80
2021/04/27 11:16:26;;;;;;;4.03;2.30;;;;;;;;;;5116784;27;20035;-81
2021/04/27 11:18:52;;;;;;;4.00;2.35;;;;;;;;;;5133897;27;20115;-81
2021/04/27 11:21:19;;;;;;;3.47;2.00;;;;;;;;;;5116636;27;20046;-81
2021/04/27 11:23:56;;;;;;;4.75;2.38;;;;;;;;;;5134951;27;20099;-81
2021/04/27 11:26:34;;;;;;;8.45;2.58;;;;;;;;;;5133640;27;20046;-81
2021/04/27 11:29:01;;;;;;;4.68;2.53;;;;;;;;;;5133579;27;20035;-80
2021/04/27 11:31:27;;;;;;;6.10;2.60;;;;;;;;;;5134674;27;20119;-81
2021/04/27 11:34:00;;;;;;;4.05;2.60;;;;;;;;;;5133427;27;20050;-81
2021/04/27 11:36:33;;;;;;;4.15;2.50;;;;;;;;;;5133162;27;20055;-81
2021/04/27 11:38:59;;;;;;;2.95;2.20;;;;;;;;;;5133523;27;20050;-81
2021/04/27 11:41:25;;;;;;;4.25;2.70;;;;;;;;;;5133392;27;20039;-81
2021/04/27 11:44:04;;;;;;;5.80;2.67;;;;;;;;;;5134384;27;20042;-81
2021/04/27 11:46:30;;;;;;;4.70;2.70;;;;;;;;;;5133079;27;20123;-81
2021/04/27 11:48:56;;;;;;;3.25;2.67;;;;;;;;;;5133295;27;20064;-81
2021/04/27 11:51:22;;;;;;;3.42;2.75;;;;;;;;;;5116164;27;20058;-80
2021/04/27 11:54:00;;;;;;;4.03;2.30;;;;;;;;;;5133111;27;20087;-81
2021/04/27 11:56:45;;;;;;;3.88;2.30;;;;;;;;;;5132676;27;20039;-81
2021/04/27 11:59:11;;;;;;;4.30;2.40;;;;;;;;;;5133140;27;20040;-81
2021/04/27 12:01:37;;;;;;;4.85;2.97;;;;;;;;;;5133145;27;20092;-81
2021/04/27 12:04:03;;;;;;;8.20;2.30;;;;;;;;;;5133905;27;20035;-81
2021/04/27 12:06:31;;;;;;;3.97;2.38;;;;;;;;;;5115505;27;20043;-81
2021/04/27 12:08:58;;;;;;;3.85;2.65;;;;;;;;;;5133916;27;20063;-79
2021/04/27 12:11:25;;;;;;;3.40;2.97;;;;;;;;;;5132625;27;20486;-80
2021/04/27 12:13:51;;;;;;;4.97;2.67;;;;;;;;;;5133988;27;20062;-80
2021/04/27 12:16:21;;;;;;;2.83;2.63;;;;;;;;;;5133961;27;20394;-81
2021/04/27 12:18:48;;;;;;;4.18;3.25;;;;;;;;;;5133656;27;20035;-81
2021/04/27 12:21:31;;;;;;;8.65;3.60;;;;;;;;;;5132615;27;20058;-80
2021/04/27 12:24:03;;;;;;;10.00;3.78;;;;;;;;;;5132454;27;20067;-80
2021/04/27 12:26:29;;;;;;;5.63;2.80;;;;;;;;;;5132497;27;20117;-80
2021/04/27 12:28:57;;;;;;;4.50;3.05;;;;;;;;;;5115534;27;20073;-80
2021/04/27 12:31:24;;;;;;;6.13;3.42;;;;;;;;;;5133539;27;20039;-81
2021/04/27 12:33:56;;;;;;;6.05;3.35;;;;;;;;;;5115404;27;20046;-81
2021/04/27 12:36:35;;;;;;;5.25;3.38;;;;;;;;;;5132118;27;20180;-80
2021/04/27 12:39:01;;;;;;;5.57;3.33;;;;;;;;;;5132345;27;20501;-80
2021/04/27 12:41:42;;;;;;;3.40;3.10;;;;;;;;;;5132199;27;20039;-82
2021/04/27 12:44:27;;;;;;;4.35;3.33;;;;;;;;;;5133471;27;20039;-80
2021/04/27 12:46:53;;;;;;;3.90;3.20;;;;;;;;;;5133446;27;20061;-80
2021/04/27 12:49:25;;;;;;;3.15;2.88;;;;;;;;;;5132195;27;20035;-80
2021/04/27 12:51:55;;;;;;;2.85;2.33;;;;;;;;;;5133376;27;20062;-80
2021/04/27 12:54:25;;;;;;;4.03;3.13;;;;;;;;;;5133435;27;20043;-81
2021/04/27 12:57:04;;;;;;;7.05;3.38;;;;;;;;;;5123735;27;20122;-80
2021/04/27 12:59:30;;;;;;;4.80;3.20;;;;;;;;;;5132525;27;20035;-81
2021/04/27 13:01:58;;;;;;;3.65;3.00;;;;;;;;;;5131973;27;20039;-80
2021/04/27 13:04:24;;;;;;;3.65;3.30;;;;;;;;;;5131913;27;20039;-80
2021/04/27 13:06:50;;;;;;;5.55;3.45;;;;;;;;;;5132929;27;20042;-81
2021/04/27 13:09:16;;;;;;;7.05;3.13;;;;;;;;;;5132352;27;20039;-80
2021/04/27 13:12:04;;;;;;;5.50;2.92;;;;;;;;;;5133019;27;20036;-79
2021/04/27 13:14:30;;;;;;;4.93;2.97;;;;;;;;;;5131803;28;20494;-80
2021/04/27 13:16:57;;;;;;;4.18;3.00;;;;;;;;;;5131837;28;20050;-81
2021/04/27 13:19:23;;;;;;;4.68;2.88;;;;;;;;;;5131832;27;20031;-80
2021/04/27 13:22:08;;;;;;;5.03;3.05;;;;;;;;;;5132953;27;20375;-81
2021/04/27 13:24:47;;;;;;;3.88;2.38;;;;;;;;;;5132827;27;20038;-81
2021/04/27 13:27:14;;;;;;;4.10;3.20;;;;;;;;;;5132896;27;20035;-80
2021/04/27 13:29:41;;;;;;;3.35;3.03;;;;;;;;;;5133011;27;20118;-81
2021/04/27 13:32:10;;;;;;;4.72;2.72;;;;;;;;;;5132903;27;20035;-80
2021/04/27 13:34:36;;;;;;;3.20;2.70;;;;;;;;;;5132091;27;20478;-81
2021/04/27 13:37:02;;;;;;;4.03;3.00;;;;;;;;;;5132552;27;20059;-80
2021/04/27 13:39:28;;;;;;;5.03;2.83;;;;;;;;;;5131573;28;20039;-81
2021/04/27 13:41:54;;;;;;;4.28;2.92;;;;;;;;;;5132765;27;20035;-81
2021/04/27 13:44:20;;;;;;;2.92;2.58;;;;;;;;;;5131582;27;20035;-81
2021/04/27 13:46:46;;;;;;;6.97;3.22;;;;;;;;;;5131412;28;20371;-82
2021/04/27 13:49:12;;;;;;;3.20;2.90;;;;;;;;;;5132648;27;20031;-81
2021/04/27 13:51:38;;;;;;;6.80;2.85;;;;;;;;;;5132610;27;20039;-81
2021/04/27 13:54:05;;;;;;;3.55;2.78;;;;;;;;;;5131470;28;20035;-83
2021/04/27 13:56:31;;;;;;;4.50;2.50;;;;;;;;;;5131273;28;20035;-81
2021/04/27 13:58:58;;;;;;;3.53;2.67;;;;;;;;;;5114507;28;20060;-82
2021/04/27 14:01:24;;;;;;;5.10;2.33;;;;;;;;;;5132516;27;20035;-82
2021/04/27 14:03:51;;;;;;;6.22;2.70;;;;;;;;;;5131115;28;20424;-82
2021/04/27 14:06:17;;;;;;;5.50;2.30;;;;;;;;;;5131229;28;20078;-82
2021/04/27 14:08:43;;;;;;;5.75;2.55;;;;;;;;;;5132594;27;20083;-81
2021/04/27 14:11:09;;;;;;;5.10;2.60;;;;;;;;;;5132572;27;20122;-81
2021/04/27 14:13:36;;;;;;;3.63;2.30;;;;;;;;;;5131230;28;20039;-81
2021/04/27 14:16:02;;;;;;;6.93;2.55;;;;;;;;;;5131108;28;20125;-81
2021/04/27 14:18:28;;;;;;;3.95;2.38;;;;;;;;;;5114216;27;20049;-80
2021/04/27 14:20:54;;;;;;;3.35;2.38;;;;;;;;;;5136003;27;20069;-81
2021/04/27 14:23:20;;;;;;;4.07;2.33;;;;;;;;;;5135063;27;20038;-82
2021/04/27 14:25:46;;;;;;;2.35;1.88;;;;;;;;;;5135674;27;20034;-81
2021/04/27 14:28:14;;;;;;;4.22;2.63;;;;;;;;;;5136003;27;20489;-81
2021/04/27 14:30:40;;;;;;;3.15;2.15;;;;;;;;;;5135916;27;20035;-81
2021/04/27 14:33:06;;;;;;;5.10;2.28;;;;;;;;;;5133076;27;20092;-83
2021/04/27 14:35:33;;;;;;;3.55;2.30;;;;;;;;;;5135799;27;20114;-81
2021/04/27 14:38:00;;;;;;;8.10;2.38;;;;;;;;;;5117284;27;20410;-81
2021/04/27 14:40:26;;;;;;;4.28;2.28;;;;;;;;;;5134525;27;20028;-82
2021/04/27 14:42:52;;;;;;;4.28;2.25;;;;;;;;;;5134484;27;20522;-80
2021/04/27 14:45:19;;;;;;;3.88;2.60;;;;;;;;;;5135504;27;20063;-81